sensor_id;sensor_type;location;lat;lon;timestamp;P1;durP1;ratioP1;P2;durP2;ratioP2
71048;SDS011;58704;53.358;-6.238;2022-10-24T00:00:24;22.93;;;3.43;;
71048;SDS011;58704;53.358;-6.238;2022-10-24T00:02:50;20.80;;;3.17;;
71048;SDS011;58704;53.358;-6.238;2022-10-24T00:05:15;20.70;;;2.85;;
71048;SDS011;58704;53.358;-6.238;2022-10-24T00:07:41;20.50;;;2.97;;
71048;SDS011;58704;53.358;-6.238;2022-10-24T00:10:06;23.50;;;3.67;;
71048;SDS011;58704;53.358;-6.238;2022-10-24T00:12:32;20.38;;;3.85;;
71048;SDS011;58704;53.358;-6.238;2022-10-24T00:14:58;19.23;;;3.30;;
71048;SDS011;58704;53.358;-6.238;2022-10-24T00:17:23;22.87;;;4.20;;
71048;SDS011;58704;53.358;-6.238;2022-10-24T00:19:49;19.33;;;3.25;;
71048;SDS011;58704;53.358;-6.238;2022-10-24T00:22:14;19.30;;;3.10;;
71048;SDS011;58704;53.358;-6.238;2022-10-24T00:24:39;15.83;;;3.20;;
71048;SDS011;58704;53.358;-6.238;2022-10-24T00:27:05;21.00;;;3.60;;
71048;SDS011;58704;53.358;-6.238;2022-10-24T00:29:30;19.65;;;3.63;;
71048;SDS011;58704;53.358;-6.238;2022-10-24T00:31:56;20.90;;;3.73;;
71048;SDS011;58704;53.358;-6.238;2022-10-24T00:34:21;24.23;;;3.83;;
71048;SDS011;58704;53.358;-6.238;2022-10-24T00:36:46;18.37;;;3.63;;
71048;SDS011;58704;53.358;-6.238;2022-10-24T00:39:12;21.45;;;3.60;;
71048;SDS011;58704;53.358;-6.238;2022-10-24T00:41:38;17.47;;;3.10;;
71048;SDS011;58704;53.358;-6.238;2022-10-24T00:44:23;19.13;;;3.35;;
71048;SDS011;58704;53.358;-6.238;2022-10-24T00:47:07;22.73;;;3.33;;
71048;SDS011;58704;53.358;-6.238;2022-10-24T00:49:53;17.70;;;3.38;;
71048;SDS011;58704;53.358;-6.238;2022-10-24T00:52:39;18.80;;;3.30;;
71048;SDS011;58704;53.358;-6.238;2022-10-24T00:55:07;25.63;;;3.45;;
71048;SDS011;58704;53.358;-6.238;2022-10-24T00:57:45;21.30;;;3.35;;
71048;SDS011;58704;53.358;-6.238;2022-10-24T01:00:14;18.37;;;3.77;;
71048;SDS011;58704;53.358;-6.238;2022-10-24T01:02:41;22.35;;;3.95;;
71048;SDS011;58704;53.358;-6.238;2022-10-24T01:05:08;16.42;;;3.08;;
71048;SDS011;58704;53.358;-6.238;2022-10-24T01:37:51;19.73;;;3.27;;
71048;SDS011;58704;53.358;-6.238;2022-10-24T01:40:23;26.08;;;3.67;;
71048;SDS011;58704;53.358;-6.238;2022-10-24T01:42:52;19.48;;;3.13;;
71048;SDS011;58704;53.358;-6.238;2022-10-24T01:45:22;22.83;;;3.60;;
71048;SDS011;58704;53.358;-6.238;2022-10-24T01:47:53;18.23;;;3.58;;
71048;SDS011;58704;53.358;-6.238;2022-10-24T01:50:19;19.23;;;3.30;;
71048;SDS011;58704;53.358;-6.238;2022-10-24T01:52:46;16.35;;;3.30;;
71048;SDS011;58704;53.358;-6.238;2022-10-24T01:55:12;13.40;;;3.00;;
71048;SDS011;58704;53.358;-6.238;2022-10-24T01:57:38;18.83;;;4.28;;
71048;SDS011;58704;53.358;-6.238;2022-10-24T02:00:06;21.47;;;2.90;;
71048;SDS011;58704;53.358;-6.238;2022-10-24T02:02:40;25.05;;;3.33;;
71048;SDS011;58704;53.358;-6.238;2022-10-24T02:05:16;16.02;;;3.35;;
71048;SDS011;58704;53.358;-6.238;2022-10-24T02:07:43;23.98;;;5.68;;
71048;SDS011;58704;53.358;-6.238;2022-10-24T02:10:12;16.73;;;3.03;;
71048;SDS011;58704;53.358;-6.238;2022-10-24T02:12:43;24.87;;;3.47;;
71048;SDS011;58704;53.358;-6.238;2022-10-24T02:15:18;26.65;;;3.47;;
71048;SDS011;58704;53.358;-6.238;2022-10-24T02:17:49;14.48;;;3.70;;
71048;SDS011;58704;53.358;-6.238;2022-10-24T02:20:16;22.35;;;3.30;;
71048;SDS011;58704;53.358;-6.238;2022-10-24T02:23:02;12.67;;;3.23;;
71048;SDS011;58704;53.358;-6.238;2022-10-24T02:25:33;20.60;;;3.30;;
71048;SDS011;58704;53.358;-6.238;2022-10-24T02:28:10;21.33;;;3.53;;
71048;SDS011;58704;53.358;-6.238;2022-10-24T02:30:41;17.60;;;2.80;;
71048;SDS011;58704;53.358;-6.238;2022-10-24T02:33:09;15.20;;;3.40;;
71048;SDS011;58704;53.358;-6.238;2022-10-24T02:35:35;22.00;;;3.95;;
71048;SDS011;58704;53.358;-6.238;2022-10-24T02:38:25;16.80;;;3.10;;
71048;SDS011;58704;53.358;-6.238;2022-10-24T02:40:53;17.93;;;2.73;;
71048;SDS011;58704;53.358;-6.238;2022-10-24T02:43:20;14.25;;;3.20;;
71048;SDS011;58704;53.358;-6.238;2022-10-24T02:45:46;22.70;;;3.63;;
71048;SDS011;58704;53.358;-6.238;2022-10-24T02:48:13;20.52;;;3.22;;
71048;SDS011;58704;53.358;-6.238;2022-10-24T02:50:41;18.90;;;3.40;;
71048;SDS011;58704;53.358;-6.238;2022-10-24T02:53:13;18.50;;;2.93;;
71048;SDS011;58704;53.358;-6.238;2022-10-24T02:55:40;19.63;;;3.13;;
71048;SDS011;58704;53.358;-6.238;2022-10-24T02:58:05;21.92;;;4.07;;
71048;SDS011;58704;53.358;-6.238;2022-10-24T03:00:31;21.43;;;3.03;;
71048;SDS011;58704;53.358;-6.238;2022-10-24T03:02:56;15.53;;;2.83;;
71048;SDS011;58704;53.358;-6.238;2022-10-24T03:05:21;16.07;;;3.43;;
71048;SDS011;58704;53.358;-6.238;2022-10-24T03:07:47;17.65;;;3.15;;
71048;SDS011;58704;53.358;-6.238;2022-10-24T03:10:12;27.57;;;3.30;;
71048;SDS011;58704;53.358;-6.238;2022-10-24T03:12:38;19.83;;;3.27;;
71048;SDS011;58704;53.358;-6.238;2022-10-24T03:15:04;13.43;;;2.70;;
71048;SDS011;58704;53.358;-6.238;2022-10-24T03:17:30;12.37;;;2.60;;
71048;SDS011;58704;53.358;-6.238;2022-10-24T03:19:55;16.75;;;2.55;;
71048;SDS011;58704;53.358;-6.238;2022-10-24T03:22:20;21.57;;;3.50;;
71048;SDS011;58704;53.358;-6.238;2022-10-24T03:24:46;15.73;;;2.73;;
71048;SDS011;58704;53.358;-6.238;2022-10-24T03:27:12;15.30;;;2.60;;
71048;SDS011;58704;53.358;-6.238;2022-10-24T03:29:38;17.30;;;3.28;;
71048;SDS011;58704;53.358;-6.238;2022-10-24T03:32:03;13.83;;;3.00;;
71048;SDS011;58704;53.358;-6.238;2022-10-24T03:34:29;23.98;;;3.15;;
71048;SDS011;58704;53.358;-6.238;2022-10-24T03:36:55;16.80;;;2.93;;
71048;SDS011;58704;53.358;-6.238;2022-10-24T03:39:20;12.30;;;2.65;;
71048;SDS011;58704;53.358;-6.238;2022-10-24T03:41:46;15.30;;;2.80;;
71048;SDS011;58704;53.358;-6.238;2022-10-24T03:44:11;17.37;;;4.00;;
71048;SDS011;58704;53.358;-6.238;2022-10-24T03:46:37;15.03;;;2.73;;
71048;SDS011;58704;53.358;-6.238;2022-10-24T03:49:02;14.88;;;3.22;;
71048;SDS011;58704;53.358;-6.238;2022-10-24T03:51:27;17.30;;;3.30;;
71048;SDS011;58704;53.358;-6.238;2022-10-24T03:53:53;18.53;;;2.13;;
71048;SDS011;58704;53.358;-6.238;2022-10-24T03:56:18;17.93;;;2.63;;
71048;SDS011;58704;53.358;-6.238;2022-10-24T03:58:44;10.88;;;2.30;;
71048;SDS011;58704;53.358;-6.238;2022-10-24T04:01:09;9.60;;;2.53;;
71048;SDS011;58704;53.358;-6.238;2022-10-24T04:03:41;15.82;;;2.53;;
71048;SDS011;58704;53.358;-6.238;2022-10-24T04:06:06;15.53;;;3.40;;
71048;SDS011;58704;53.358;-6.238;2022-10-24T04:08:32;14.37;;;3.00;;
71048;SDS011;58704;53.358;-6.238;2022-10-24T04:10:57;16.27;;;2.90;;
71048;SDS011;58704;53.358;-6.238;2022-10-24T04:13:22;15.50;;;2.70;;
71048;SDS011;58704;53.358;-6.238;2022-10-24T04:15:48;22.40;;;3.13;;
71048;SDS011;58704;53.358;-6.238;2022-10-24T04:18:13;17.03;;;2.83;;
71048;SDS011;58704;53.358;-6.238;2022-10-24T04:20:39;10.50;;;2.77;;
71048;SDS011;58704;53.358;-6.238;2022-10-24T04:23:04;15.37;;;2.80;;
71048;SDS011;58704;53.358;-6.238;2022-10-24T04:25:29;22.58;;;3.53;;
71048;SDS011;58704;53.358;-6.238;2022-10-24T04:27:55;20.20;;;3.43;;
71048;SDS011;58704;53.358;-6.238;2022-10-24T04:30:20;19.47;;;3.53;;
71048;SDS011;58704;53.358;-6.238;2022-10-24T04:32:46;21.90;;;3.30;;
71048;SDS011;58704;53.358;-6.238;2022-10-24T04:35:11;12.07;;;2.73;;
71048;SDS011;58704;53.358;-6.238;2022-10-24T04:37:38;13.60;;;2.63;;
71048;SDS011;58704;53.358;-6.238;2022-10-24T04:40:03;15.00;;;3.70;;
71048;SDS011;58704;53.358;-6.238;2022-10-24T04:42:29;14.20;;;2.55;;
71048;SDS011;58704;53.358;-6.238;2022-10-24T04:44:54;13.40;;;2.60;;
71048;SDS011;58704;53.358;-6.238;2022-10-24T04:47:20;15.60;;;2.70;;
71048;SDS011;58704;53.358;-6.238;2022-10-24T04:49:45;13.20;;;2.47;;
71048;SDS011;58704;53.358;-6.238;2022-10-24T04:52:11;12.13;;;2.53;;
71048;SDS011;58704;53.358;-6.238;2022-10-24T04:54:36;16.30;;;2.55;;
71048;SDS011;58704;53.358;-6.238;2022-10-24T04:57:01;13.57;;;2.37;;
71048;SDS011;58704;53.358;-6.238;2022-10-24T04:59:27;15.03;;;3.07;;
71048;SDS011;58704;53.358;-6.238;2022-10-24T05:01:52;15.17;;;3.00;;
71048;SDS011;58704;53.358;-6.238;2022-10-24T05:04:19;17.33;;;3.53;;
71048;SDS011;58704;53.358;-6.238;2022-10-24T05:06:44;19.27;;;3.72;;
71048;SDS011;58704;53.358;-6.238;2022-10-24T05:09:11;20.35;;;3.33;;
71048;SDS011;58704;53.358;-6.238;2022-10-24T05:11:37;17.35;;;3.55;;
71048;SDS011;58704;53.358;-6.238;2022-10-24T05:14:02;17.27;;;3.70;;
71048;SDS011;58704;53.358;-6.238;2022-10-24T05:16:27;17.87;;;3.60;;
71048;SDS011;58704;53.358;-6.238;2022-10-24T05:18:53;13.63;;;3.07;;
71048;SDS011;58704;53.358;-6.238;2022-10-24T05:21:18;23.13;;;3.50;;
71048;SDS011;58704;53.358;-6.238;2022-10-24T05:23:44;19.27;;;4.05;;
71048;SDS011;58704;53.358;-6.238;2022-10-24T05:26:09;21.23;;;3.57;;
71048;SDS011;58704;53.358;-6.238;2022-10-24T05:28:34;16.00;;;2.93;;
71048;SDS011;58704;53.358;-6.238;2022-10-24T05:31:00;14.40;;;3.77;;
71048;SDS011;58704;53.358;-6.238;2022-10-24T05:33:25;19.97;;;3.60;;
71048;SDS011;58704;53.358;-6.238;2022-10-24T05:35:51;19.20;;;3.50;;
71048;SDS011;58704;53.358;-6.238;2022-10-24T05:38:17;16.03;;;2.83;;
71048;SDS011;58704;53.358;-6.238;2022-10-24T05:40:43;18.65;;;3.22;;
71048;SDS011;58704;53.358;-6.238;2022-10-24T05:43:11;20.85;;;3.80;;
71048;SDS011;58704;53.358;-6.238;2022-10-24T05:45:37;21.97;;;3.93;;
71048;SDS011;58704;53.358;-6.238;2022-10-24T05:48:03;25.17;;;3.20;;
71048;SDS011;58704;53.358;-6.238;2022-10-24T05:50:28;19.07;;;2.97;;
71048;SDS011;58704;53.358;-6.238;2022-10-24T05:52:55;18.75;;;4.20;;
71048;SDS011;58704;53.358;-6.238;2022-10-24T05:55:20;18.80;;;2.83;;
71048;SDS011;58704;53.358;-6.238;2022-10-24T05:57:46;27.50;;;3.53;;
71048;SDS011;58704;53.358;-6.238;2022-10-24T06:00:12;12.67;;;2.93;;
71048;SDS011;58704;53.358;-6.238;2022-10-24T06:02:39;19.70;;;3.72;;
71048;SDS011;58704;53.358;-6.238;2022-10-24T06:05:05;17.35;;;3.40;;
71048;SDS011;58704;53.358;-6.238;2022-10-24T06:07:31;14.87;;;3.07;;
71048;SDS011;58704;53.358;-6.238;2022-10-24T06:09:56;14.32;;;2.95;;
71048;SDS011;58704;53.358;-6.238;2022-10-24T06:12:22;16.20;;;3.13;;
71048;SDS011;58704;53.358;-6.238;2022-10-24T06:14:47;12.88;;;2.88;;
71048;SDS011;58704;53.358;-6.238;2022-10-24T06:17:13;17.60;;;3.00;;
71048;SDS011;58704;53.358;-6.238;2022-10-24T06:19:38;11.77;;;2.77;;
71048;SDS011;58704;53.358;-6.238;2022-10-24T06:22:04;16.95;;;2.80;;
71048;SDS011;58704;53.358;-6.238;2022-10-24T06:24:32;19.73;;;3.17;;
71048;SDS011;58704;53.358;-6.238;2022-10-24T06:26:58;14.87;;;2.70;;
71048;SDS011;58704;53.358;-6.238;2022-10-24T06:29:24;23.17;;;3.63;;
71048;SDS011;58704;53.358;-6.238;2022-10-24T06:31:49;9.63;;;2.20;;
71048;SDS011;58704;53.358;-6.238;2022-10-24T06:34:15;7.80;;;2.30;;
71048;SDS011;58704;53.358;-6.238;2022-10-24T06:36:40;9.03;;;2.37;;
71048;SDS011;58704;53.358;-6.238;2022-10-24T06:39:06;15.00;;;2.80;;
71048;SDS011;58704;53.358;-6.238;2022-10-24T06:41:31;17.03;;;2.93;;
71048;SDS011;58704;53.358;-6.238;2022-10-24T06:43:56;9.10;;;2.97;;
71048;SDS011;58704;53.358;-6.238;2022-10-24T06:46:22;14.13;;;5.93;;
71048;SDS011;58704;53.358;-6.238;2022-10-24T06:48:48;13.23;;;4.67;;
71048;SDS011;58704;53.358;-6.238;2022-10-24T06:51:17;12.45;;;4.13;;
71048;SDS011;58704;53.358;-6.238;2022-10-24T06:53:43;14.23;;;3.83;;
71048;SDS011;58704;53.358;-6.238;2022-10-24T06:56:08;13.10;;;2.77;;
71048;SDS011;58704;53.358;-6.238;2022-10-24T06:58:35;18.60;;;3.03;;
71048;SDS011;58704;53.358;-6.238;2022-10-24T07:01:11;12.55;;;2.70;;
71048;SDS011;58704;53.358;-6.238;2022-10-24T07:03:38;12.43;;;2.77;;
71048;SDS011;58704;53.358;-6.238;2022-10-24T07:06:25;10.55;;;2.70;;
71048;SDS011;58704;53.358;-6.238;2022-10-24T07:08:51;10.40;;;2.13;;
71048;SDS011;58704;53.358;-6.238;2022-10-24T07:11:17;11.75;;;2.42;;
71048;SDS011;58704;53.358;-6.238;2022-10-24T07:13:43;13.93;;;2.42;;
71048;SDS011;58704;53.358;-6.238;2022-10-24T07:16:09;8.70;;;2.50;;
71048;SDS011;58704;53.358;-6.238;2022-10-24T07:18:34;8.63;;;2.77;;
71048;SDS011;58704;53.358;-6.238;2022-10-24T07:21:04;8.00;;;2.53;;
71048;SDS011;58704;53.358;-6.238;2022-10-24T07:23:32;5.85;;;2.53;;
71048;SDS011;58704;53.358;-6.238;2022-10-24T07:26:04;9.10;;;2.15;;
71048;SDS011;58704;53.358;-6.238;2022-10-24T07:28:39;13.00;;;3.13;;
71048;SDS011;58704;53.358;-6.238;2022-10-24T07:31:05;6.37;;;2.00;;
71048;SDS011;58704;53.358;-6.238;2022-10-24T07:33:31;13.52;;;2.60;;
71048;SDS011;58704;53.358;-6.238;2022-10-24T07:35:57;8.73;;;2.47;;
71048;SDS011;58704;53.358;-6.238;2022-10-24T07:38:22;8.57;;;2.33;;
71048;SDS011;58704;53.358;-6.238;2022-10-24T07:40:48;7.90;;;2.20;;
71048;SDS011;58704;53.358;-6.238;2022-10-24T07:43:14;9.83;;;2.67;;
71048;SDS011;58704;53.358;-6.238;2022-10-24T07:45:40;9.73;;;2.47;;
71048;SDS011;58704;53.358;-6.238;2022-10-24T07:48:06;9.13;;;2.95;;
71048;SDS011;58704;53.358;-6.238;2022-10-24T07:50:32;13.77;;;2.30;;
71048;SDS011;58704;53.358;-6.238;2022-10-24T07:52:58;9.30;;;2.17;;
71048;SDS011;58704;53.358;-6.238;2022-10-24T07:55:25;7.22;;;2.25;;
71048;SDS011;58704;53.358;-6.238;2022-10-24T07:57:50;6.33;;;2.00;;
71048;SDS011;58704;53.358;-6.238;2022-10-24T08:00:16;8.45;;;2.20;;
71048;SDS011;58704;53.358;-6.238;2022-10-24T08:02:41;10.70;;;2.40;;
71048;SDS011;58704;53.358;-6.238;2022-10-24T08:05:07;7.70;;;2.20;;
71048;SDS011;58704;53.358;-6.238;2022-10-24T08:07:35;5.97;;;1.90;;
71048;SDS011;58704;53.358;-6.238;2022-10-24T08:10:00;6.45;;;1.77;;
71048;SDS011;58704;53.358;-6.238;2022-10-24T08:12:26;5.70;;;2.13;;
71048;SDS011;58704;53.358;-6.238;2022-10-24T08:14:51;5.00;;;1.70;;
71048;SDS011;58704;53.358;-6.238;2022-10-24T08:17:19;6.70;;;2.80;;
71048;SDS011;58704;53.358;-6.238;2022-10-24T08:19:45;5.88;;;2.05;;
71048;SDS011;58704;53.358;-6.238;2022-10-24T08:22:11;7.33;;;2.00;;
71048;SDS011;58704;53.358;-6.238;2022-10-24T08:24:36;9.57;;;2.43;;
71048;SDS011;58704;53.358;-6.238;2022-10-24T08:27:01;8.97;;;2.27;;
71048;SDS011;58704;53.358;-6.238;2022-10-24T08:29:27;6.07;;;1.90;;
71048;SDS011;58704;53.358;-6.238;2022-10-24T08:31:53;11.90;;;2.40;;
71048;SDS011;58704;53.358;-6.238;2022-10-24T08:34:19;6.95;;;2.40;;
71048;SDS011;58704;53.358;-6.238;2022-10-24T08:36:46;6.63;;;2.08;;
71048;SDS011;58704;53.358;-6.238;2022-10-24T08:39:14;6.57;;;1.42;;
71048;SDS011;58704;53.358;-6.238;2022-10-24T08:41:44;3.13;;;1.88;;
71048;SDS011;58704;53.358;-6.238;2022-10-24T08:44:25;6.97;;;2.03;;
71048;SDS011;58704;53.358;-6.238;2022-10-24T08:50:16;3.33;;;1.50;;
71048;SDS011;58704;53.358;-6.238;2022-10-24T08:55:50;9.55;;;2.72;;
71048;SDS011;58704;53.358;-6.238;2022-10-24T08:58:23;5.00;;;2.20;;
71048;SDS011;58704;53.358;-6.238;2022-10-24T09:00:51;2.70;;;1.73;;
71048;SDS011;58704;53.358;-6.238;2022-10-24T09:03:31;3.72;;;1.55;;
71048;SDS011;58704;53.358;-6.238;2022-10-24T09:06:05;4.82;;;2.03;;
71048;SDS011;58704;53.358;-6.238;2022-10-24T09:08:34;4.05;;;1.88;;
71048;SDS011;58704;53.358;-6.238;2022-10-24T09:11:03;10.93;;;2.07;;
71048;SDS011;58704;53.358;-6.238;2022-10-24T09:13:30;5.38;;;2.10;;
71048;SDS011;58704;53.358;-6.238;2022-10-24T09:15:58;5.38;;;2.05;;
71048;SDS011;58704;53.358;-6.238;2022-10-24T09:18:35;4.67;;;1.77;;
71048;SDS011;58704;53.358;-6.238;2022-10-24T09:21:02;2.80;;;1.70;;
71048;SDS011;58704;53.358;-6.238;2022-10-24T09:23:30;4.82;;;1.40;;
71048;SDS011;58704;53.358;-6.238;2022-10-24T09:25:57;5.03;;;1.55;;
71048;SDS011;58704;53.358;-6.238;2022-10-24T09:28:23;4.47;;;1.57;;
71048;SDS011;58704;53.358;-6.238;2022-10-24T09:30:48;3.70;;;1.83;;
71048;SDS011;58704;53.358;-6.238;2022-10-24T09:35:54;6.35;;;1.80;;
71048;SDS011;58704;53.358;-6.238;2022-10-24T09:40:49;2.63;;;1.73;;
71048;SDS011;58704;53.358;-6.238;2022-10-24T09:43:16;3.78;;;1.40;;
71048;SDS011;58704;53.358;-6.238;2022-10-24T09:45:50;4.10;;;1.55;;
71048;SDS011;58704;53.358;-6.238;2022-10-24T09:48:21;4.93;;;1.23;;
71048;SDS011;58704;53.358;-6.238;2022-10-24T09:50:54;2.00;;;1.67;;
71048;SDS011;58704;53.358;-6.238;2022-10-24T09:53:34;2.97;;;1.60;;
71048;SDS011;58704;53.358;-6.238;2022-10-24T09:56:11;3.47;;;1.65;;
71048;SDS011;58704;53.358;-6.238;2022-10-24T09:58:38;2.80;;;1.48;;
71048;SDS011;58704;53.358;-6.238;2022-10-24T10:03:38;6.63;;;1.50;;
71048;SDS011;58704;53.358;-6.238;2022-10-24T10:06:14;6.07;;;1.67;;
71048;SDS011;58704;53.358;-6.238;2022-10-24T10:08:43;2.97;;;1.50;;
71048;SDS011;58704;53.358;-6.238;2022-10-24T10:11:13;3.40;;;1.40;;
71048;SDS011;58704;53.358;-6.238;2022-10-24T10:16:33;4.68;;;1.50;;
71048;SDS011;58704;53.358;-6.238;2022-10-24T10:19:02;3.08;;;1.75;;
71048;SDS011;58704;53.358;-6.238;2022-10-24T10:21:50;5.82;;;1.52;;
71048;SDS011;58704;53.358;-6.238;2022-10-24T10:24:24;2.35;;;1.52;;
71048;SDS011;58704;53.358;-6.238;2022-10-24T10:26:50;3.50;;;1.20;;
71048;SDS011;58704;53.358;-6.238;2022-10-24T10:42:16;3.40;;;1.38;;
71048;SDS011;58704;53.358;-6.238;2022-10-24T10:45:21;8.52;;;5.88;;
71048;SDS011;58704;53.358;-6.238;2022-10-24T10:56:38;3.90;;;1.70;;
71048;SDS011;58704;53.358;-6.238;2022-10-24T11:01:58;6.18;;;1.50;;
71048;SDS011;58704;53.358;-6.238;2022-10-24T11:05:14;2.55;;;1.48;;
71048;SDS011;58704;53.358;-6.238;2022-10-24T11:07:40;7.70;;;1.40;;
71048;SDS011;58704;53.358;-6.238;2022-10-24T11:10:14;4.13;;;1.30;;
71048;SDS011;58704;53.358;-6.238;2022-10-24T11:12:43;5.93;;;1.50;;
71048;SDS011;58704;53.358;-6.238;2022-10-24T11:20:35;4.00;;;1.60;;
71048;SDS011;58704;53.358;-6.238;2022-10-24T11:23:09;4.13;;;1.55;;
71048;SDS011;58704;53.358;-6.238;2022-10-24T11:30:49;5.03;;;1.80;;
71048;SDS011;58704;53.358;-6.238;2022-10-24T11:33:25;2.67;;;2.33;;
71048;SDS011;58704;53.358;-6.238;2022-10-24T11:36:10;3.55;;;1.38;;
71048;SDS011;58704;53.358;-6.238;2022-10-24T11:38:44;4.03;;;1.50;;
71048;SDS011;58704;53.358;-6.238;2022-10-24T11:43:58;3.22;;;1.30;;
71048;SDS011;58704;53.358;-6.238;2022-10-24T11:46:28;3.83;;;1.40;;
71048;SDS011;58704;53.358;-6.238;2022-10-24T11:49:14;2.38;;;1.20;;
71048;SDS011;58704;53.358;-6.238;2022-10-24T11:51:46;5.47;;;1.45;;
71048;SDS011;58704;53.358;-6.238;2022-10-24T11:54:29;2.67;;;1.40;;
71048;SDS011;58704;53.358;-6.238;2022-10-24T11:57:03;5.85;;;1.83;;
71048;SDS011;58704;53.358;-6.238;2022-10-24T11:59:32;2.50;;;1.30;;
71048;SDS011;58704;53.358;-6.238;2022-10-24T12:18:03;4.07;;;1.20;;
71048;SDS011;58704;53.358;-6.238;2022-10-24T12:20:29;2.22;;;1.05;;
71048;SDS011;58704;53.358;-6.238;2022-10-24T12:22:55;3.10;;;1.03;;
71048;SDS011;58704;53.358;-6.238;2022-10-24T12:28:06;3.58;;;1.40;;
71048;SDS011;58704;53.358;-6.238;2022-10-24T12:30:41;3.35;;;1.23;;
71048;SDS011;58704;53.358;-6.238;2022-10-24T12:38:20;2.60;;;1.10;;
71048;SDS011;58704;53.358;-6.238;2022-10-24T12:41:03;1.33;;;1.00;;
71048;SDS011;58704;53.358;-6.238;2022-10-24T12:43:42;2.50;;;0.88;;
71048;SDS011;58704;53.358;-6.238;2022-10-24T12:59:18;3.97;;;1.40;;
71048;SDS011;58704;53.358;-6.238;2022-10-24T13:01:46;3.40;;;1.17;;
71048;SDS011;58704;53.358;-6.238;2022-10-24T13:07:10;1.52;;;1.20;;
71048;SDS011;58704;53.358;-6.238;2022-10-24T13:15:25;9.38;;;2.00;;
71048;SDS011;58704;53.358;-6.238;2022-10-24T13:18:11;2.73;;;1.20;;
71048;SDS011;58704;53.358;-6.238;2022-10-24T13:20:45;1.30;;;0.90;;
71048;SDS011;58704;53.358;-6.238;2022-10-24T13:25:58;2.80;;;1.05;;
71048;SDS011;58704;53.358;-6.238;2022-10-24T13:39:03;2.85;;;1.08;;
71048;SDS011;58704;53.358;-6.238;2022-10-24T13:41:47;1.30;;;1.15;;
71048;SDS011;58704;53.358;-6.238;2022-10-24T13:44:20;2.60;;;1.20;;
71048;SDS011;58704;53.358;-6.238;2022-10-24T13:53:05;1.88;;;1.10;;
71048;SDS011;58704;53.358;-6.238;2022-10-24T13:55:37;3.65;;;1.35;;
71048;SDS011;58704;53.358;-6.238;2022-10-24T13:58:08;3.83;;;1.23;;
71048;SDS011;58704;53.358;-6.238;2022-10-24T14:03:19;2.03;;;1.00;;
71048;SDS011;58704;53.358;-6.238;2022-10-24T14:05:56;1.40;;;1.15;;
71048;SDS011;58704;53.358;-6.238;2022-10-24T14:08:37;4.18;;;1.40;;
71048;SDS011;58704;53.358;-6.238;2022-10-24T14:11:07;3.08;;;1.40;;
71048;SDS011;58704;53.358;-6.238;2022-10-24T14:13:41;4.47;;;1.50;;
71048;SDS011;58704;53.358;-6.238;2022-10-24T14:16:08;1.37;;;0.90;;
71048;SDS011;58704;53.358;-6.238;2022-10-24T14:18:34;3.90;;;1.08;;
71048;SDS011;58704;53.358;-6.238;2022-10-24T14:21:02;4.28;;;1.45;;
71048;SDS011;58704;53.358;-6.238;2022-10-24T14:23:38;2.47;;;1.20;;
71048;SDS011;58704;53.358;-6.238;2022-10-24T14:28:36;2.28;;;1.40;;
71048;SDS011;58704;53.358;-6.238;2022-10-24T14:31:04;2.60;;;1.63;;
71048;SDS011;58704;53.358;-6.238;2022-10-24T14:33:40;2.58;;;1.40;;
71048;SDS011;58704;53.358;-6.238;2022-10-24T14:36:07;2.17;;;1.40;;
71048;SDS011;58704;53.358;-6.238;2022-10-24T14:38:33;1.40;;;0.90;;
71048;SDS011;58704;53.358;-6.238;2022-10-24T14:40:59;1.15;;;1.10;;
71048;SDS011;58704;53.358;-6.238;2022-10-24T14:43:26;3.00;;;1.30;;
71048;SDS011;58704;53.358;-6.238;2022-10-24T14:48:36;2.53;;;1.10;;
71048;SDS011;58704;53.358;-6.238;2022-10-24T14:51:06;3.28;;;0.93;;
71048;SDS011;58704;53.358;-6.238;2022-10-24T14:53:43;2.17;;;1.00;;
71048;SDS011;58704;53.358;-6.238;2022-10-24T14:56:23;2.63;;;1.40;;
71048;SDS011;58704;53.358;-6.238;2022-10-24T14:58:55;2.47;;;1.10;;
71048;SDS011;58704;53.358;-6.238;2022-10-24T15:01:22;1.20;;;1.10;;
71048;SDS011;58704;53.358;-6.238;2022-10-24T15:03:49;1.92;;;1.02;;
71048;SDS011;58704;53.358;-6.238;2022-10-24T15:06:18;3.13;;;0.90;;
71048;SDS011;58704;53.358;-6.238;2022-10-24T15:08:58;2.83;;;1.25;;
71048;SDS011;58704;53.358;-6.238;2022-10-24T15:11:29;2.10;;;1.10;;
71048;SDS011;58704;53.358;-6.238;2022-10-24T15:13:55;1.92;;;1.23;;
71048;SDS011;58704;53.358;-6.238;2022-10-24T15:16:30;3.37;;;1.27;;
71048;SDS011;58704;53.358;-6.238;2022-10-24T15:18:59;2.22;;;1.30;;
71048;SDS011;58704;53.358;-6.238;2022-10-24T15:21:26;2.25;;;1.10;;
71048;SDS011;58704;53.358;-6.238;2022-10-24T15:23:57;1.98;;;1.30;;
71048;SDS011;58704;53.358;-6.238;2022-10-24T15:26:34;2.30;;;1.38;;
71048;SDS011;58704;53.358;-6.238;2022-10-24T15:31:38;3.08;;;1.17;;
71048;SDS011;58704;53.358;-6.238;2022-10-24T15:34:05;1.83;;;1.13;;
71048;SDS011;58704;53.358;-6.238;2022-10-24T15:36:34;3.17;;;1.50;;
71048;SDS011;58704;53.358;-6.238;2022-10-24T15:39:04;2.00;;;1.30;;
71048;SDS011;58704;53.358;-6.238;2022-10-24T15:41:31;1.90;;;1.20;;
71048;SDS011;58704;53.358;-6.238;2022-10-24T15:43:57;5.40;;;1.40;;
71048;SDS011;58704;53.358;-6.238;2022-10-24T15:46:22;3.23;;;1.23;;
71048;SDS011;58704;53.358;-6.238;2022-10-24T15:48:48;1.83;;;1.30;;
71048;SDS011;58704;53.358;-6.238;2022-10-24T15:51:15;5.78;;;1.27;;
71048;SDS011;58704;53.358;-6.238;2022-10-24T15:53:42;1.85;;;1.45;;
71048;SDS011;58704;53.358;-6.238;2022-10-24T15:56:09;5.47;;;1.33;;
71048;SDS011;58704;53.358;-6.238;2022-10-24T15:58:36;3.35;;;1.92;;
71048;SDS011;58704;53.358;-6.238;2022-10-24T16:01:02;3.05;;;1.48;;
71048;SDS011;58704;53.358;-6.238;2022-10-24T16:03:27;3.70;;;1.30;;
71048;SDS011;58704;53.358;-6.238;2022-10-24T16:05:53;4.37;;;1.10;;
71048;SDS011;58704;53.358;-6.238;2022-10-24T16:08:20;2.38;;;1.30;;
71048;SDS011;58704;53.358;-6.238;2022-10-24T16:10:46;1.43;;;1.00;;
71048;SDS011;58704;53.358;-6.238;2022-10-24T16:13:13;1.70;;;1.00;;
71048;SDS011;58704;53.358;-6.238;2022-10-24T16:15:39;2.17;;;1.30;;
71048;SDS011;58704;53.358;-6.238;2022-10-24T16:18:06;1.83;;;1.40;;
71048;SDS011;58704;53.358;-6.238;2022-10-24T16:20:32;2.00;;;1.50;;
71048;SDS011;58704;53.358;-6.238;2022-10-24T16:22:57;2.17;;;1.43;;
71048;SDS011;58704;53.358;-6.238;2022-10-24T16:25:24;2.95;;;1.70;;
71048;SDS011;58704;53.358;-6.238;2022-10-24T16:27:51;3.30;;;2.00;;
71048;SDS011;58704;53.358;-6.238;2022-10-24T16:30:18;4.82;;;1.50;;
71048;SDS011;58704;53.358;-6.238;2022-10-24T16:32:45;3.33;;;1.85;;
71048;SDS011;58704;53.358;-6.238;2022-10-24T16:35:18;9.83;;;1.90;;
71048;SDS011;58704;53.358;-6.238;2022-10-24T16:37:44;7.35;;;1.60;;
71048;SDS011;58704;53.358;-6.238;2022-10-24T16:40:10;5.03;;;3.10;;
71048;SDS011;58704;53.358;-6.238;2022-10-24T16:42:36;2.90;;;1.63;;
71048;SDS011;58704;53.358;-6.238;2022-10-24T16:45:02;3.43;;;2.20;;
71048;SDS011;58704;53.358;-6.238;2022-10-24T16:47:28;1.95;;;1.40;;
71048;SDS011;58704;53.358;-6.238;2022-10-24T16:49:54;4.70;;;3.00;;
71048;SDS011;58704;53.358;-6.238;2022-10-24T16:52:20;7.30;;;2.60;;
71048;SDS011;58704;53.358;-6.238;2022-10-24T16:54:45;5.93;;;2.53;;
71048;SDS011;58704;53.358;-6.238;2022-10-24T16:57:11;4.27;;;2.70;;
71048;SDS011;58704;53.358;-6.238;2022-10-24T16:59:36;5.27;;;3.20;;
71048;SDS011;58704;53.358;-6.238;2022-10-24T17:02:02;3.50;;;2.35;;
71048;SDS011;58704;53.358;-6.238;2022-10-24T17:04:27;4.87;;;2.00;;
71048;SDS011;58704;53.358;-6.238;2022-10-24T17:06:53;7.30;;;2.07;;
71048;SDS011;58704;53.358;-6.238;2022-10-24T17:09:18;5.90;;;1.93;;
71048;SDS011;58704;53.358;-6.238;2022-10-24T17:11:44;3.47;;;1.80;;
71048;SDS011;58704;53.358;-6.238;2022-10-24T17:14:09;4.30;;;1.80;;
71048;SDS011;58704;53.358;-6.238;2022-10-24T17:16:37;4.55;;;2.22;;